sensor_id;sensor_type;location;lat;lon;timestamp;temperature;humidity
45619;DHT22;31343;47.520;19.144;2023-11-18T00:00:12;5.20;99.90
45619;DHT22;31343;47.520;19.144;2023-11-18T00:02:39;5.20;99.90
45619;DHT22;31343;47.520;19.144;2023-11-18T00:05:05;5.20;99.90
45619;DHT22;31343;47.520;19.144;2023-11-18T00:07:32;5.10;99.90
45619;DHT22;31343;47.520;19.144;2023-11-18T00:09:58;5.20;99.90
45619;DHT22;31343;47.520;19.144;2023-11-18T00:12:24;5.20;99.90
45619;DHT22;31343;47.520;19.144;2023-11-18T00:14:50;5.10;99.90
45619;DHT22;31343;47.520;19.144;2023-11-18T00:17:16;5.20;99.90
45619;DHT22;31343;47.520;19.144;2023-11-18T00:19:42;5.20;99.90
45619;DHT22;31343;47.520;19.144;2023-11-18T00:22:10;5.10;99.90
45619;DHT22;31343;47.520;19.144;2023-11-18T00:24:37;5.10;99.90
45619;DHT22;31343;47.520;19.144;2023-11-18T00:27:04;5.10;99.90
45619;DHT22;31343;47.520;19.144;2023-11-18T00:29:35;5.10;99.90
45619;DHT22;31343;47.520;19.144;2023-11-18T00:32:01;5.10;99.90
45619;DHT22;31343;47.520;19.144;2023-11-18T00:34:28;5.10;99.90
45619;DHT22;31343;47.520;19.144;2023-11-18T00:36:55;5.00;99.90
45619;DHT22;31343;47.520;19.144;2023-11-18T00:39:24;5.00;99.90
45619;DHT22;31343;47.520;19.144;2023-11-18T00:41:50;5.00;99.90
45619;DHT22;31343;47.520;19.144;2023-11-18T00:44:16;4.90;99.90
45619;DHT22;31343;47.520;19.144;2023-11-18T00:46:42;4.90;99.90
45619;DHT22;31343;47.520;19.144;2023-11-18T00:49:08;4.90;99.90
45619;DHT22;31343;47.520;19.144;2023-11-18T00:51:34;4.90;99.90
45619;DHT22;31343;47.520;19.144;2023-11-18T00:54:01;4.90;99.90
45619;DHT22;31343;47.520;19.144;2023-11-18T00:56:27;4.90;99.90
45619;DHT22;31343;47.520;19.144;2023-11-18T00:58:54;4.80;99.90
45619;DHT22;31343;47.520;19.144;2023-11-18T01:01:20;4.80;99.90
45619;DHT22;31343;47.520;19.144;2023-11-18T01:03:47;4.80;99.90
45619;DHT22;31343;47.520;19.144;2023-11-18T01:06:13;4.70;99.90
45619;DHT22;31343;47.520;19.144;2023-11-18T01:08:45;4.80;99.90
45619;DHT22;31343;47.520;19.144;2023-11-18T01:11:16;4.70;99.90
45619;DHT22;31343;47.520;19.144;2023-11-18T01:13:51;4.80;99.90
45619;DHT22;31343;47.520;19.144;2023-11-18T01:16:17;4.80;99.90
45619;DHT22;31343;47.520;19.144;2023-11-18T01:18:43;4.70;99.90
45619;DHT22;31343;47.520;19.144;2023-11-18T01:21:09;4.70;99.90
45619;DHT22;31343;47.520;19.144;2023-11-18T01:23:39;4.70;99.90
45619;DHT22;31343;47.520;19.144;2023-11-18T01:26:08;4.70;99.90
45619;DHT22;31343;47.520;19.144;2023-11-18T01:28:34;4.60;99.90
45619;DHT22;31343;47.520;19.144;2023-11-18T01:31:07;4.60;99.90
45619;DHT22;31343;47.520;19.144;2023-11-18T01:33:37;4.50;99.90
45619;DHT22;31343;47.520;19.144;2023-11-18T01:36:06;4.50;99.90
45619;DHT22;31343;47.520;19.144;2023-11-18T01:38:34;4.50;99.90
45619;DHT22;31343;47.520;19.144;2023-11-18T01:41:01;4.50;99.90
45619;DHT22;31343;47.520;19.144;2023-11-18T01:43:28;4.50;99.90
45619;DHT22;31343;47.520;19.144;2023-11-18T01:46:04;4.50;99.90
45619;DHT22;31343;47.520;19.144;2023-11-18T01:48:31;4.50;99.90
45619;DHT22;31343;47.520;19.144;2023-11-18T01:50:59;4.50;99.90
45619;DHT22;31343;47.520;19.144;2023-11-18T01:53:27;4.50;99.90
45619;DHT22;31343;47.520;19.144;2023-11-18T01:55:56;4.50;99.90
45619;DHT22;31343;47.520;19.144;2023-11-18T01:58:24;4.50;99.90
45619;DHT22;31343;47.520;19.144;2023-11-18T02:00:53;4.50;99.90
45619;DHT22;31343;47.520;19.144;2023-11-18T02:03:19;4.50;99.90
45619;DHT22;31343;47.520;19.144;2023-11-18T02:05:45;4.50;99.90
45619;DHT22;31343;47.520;19.144;2023-11-18T02:08:11;4.50;99.90
45619;DHT22;31343;47.520;19.144;2023-11-18T02:10:53;4.50;99.90
45619;DHT22;31343;47.520;19.144;2023-11-18T02:13:27;4.40;99.90
45619;DHT22;31343;47.520;19.144;2023-11-18T02:15:56;4.40;99.90
45619;DHT22;31343;47.520;19.144;2023-11-18T02:18:24;4.40;99.90
45619;DHT22;31343;47.520;19.144;2023-11-18T02:20:51;4.30;99.90
45619;DHT22;31343;47.520;19.144;2023-11-18T02:23:17;4.40;99.90
45619;DHT22;31343;47.520;19.144;2023-11-18T02:25:46;4.30;99.90
45619;DHT22;31343;47.520;19.144;2023-11-18T02:28:13;4.30;99.90
45619;DHT22;31343;47.520;19.144;2023-11-18T02:30:42;4.40;99.90
45619;DHT22;31343;47.520;19.144;2023-11-18T02:33:18;4.40;99.90
45619;DHT22;31343;47.520;19.144;2023-11-18T02:35:51;4.40;99.90
45619;DHT22;31343;47.520;19.144;2023-11-18T02:38:22;4.40;99.90
45619;DHT22;31343;47.520;19.144;2023-11-18T02:40:52;4.30;99.90
45619;DHT22;31343;47.520;19.144;2023-11-18T02:43:19;4.40;99.90
45619;DHT22;31343;47.520;19.144;2023-11-18T02:45:45;4.40;99.90
45619;DHT22;31343;47.520;19.144;2023-11-18T02:48:12;4.30;99.90
45619;DHT22;31343;47.520;19.144;2023-11-18T02:50:40;4.40;99.90
45619;DHT22;31343;47.520;19.144;2023-11-18T02:53:08;4.40;99.90
45619;DHT22;31343;47.520;19.144;2023-11-18T02:55:35;4.30;99.90
45619;DHT22;31343;47.520;19.144;2023-11-18T02:58:01;4.40;99.90
45619;DHT22;31343;47.520;19.144;2023-11-18T03:00:28;4.30;99.90
45619;DHT22;31343;47.520;19.144;2023-11-18T03:02:54;4.30;99.90
45619;DHT22;31343;47.520;19.144;2023-11-18T03:05:20;4.30;99.90
45619;DHT22;31343;47.520;19.144;2023-11-18T03:07:49;4.40;99.90
45619;DHT22;31343;47.520;19.144;2023-11-18T03:10:22;4.40;99.90
45619;DHT22;31343;47.520;19.144;2023-11-18T03:12:52;4.40;99.90
45619;DHT22;31343;47.520;19.144;2023-11-18T03:15:18;4.40;99.90
45619;DHT22;31343;47.520;19.144;2023-11-18T03:17:45;4.40;99.90
45619;DHT22;31343;47.520;19.144;2023-11-18T03:20:12;4.50;99.90
45619;DHT22;31343;47.520;19.144;2023-11-18T03:22:41;4.40;99.90
45619;DHT22;31343;47.520;19.144;2023-11-18T03:25:07;4.50;99.90
45619;DHT22;31343;47.520;19.144;2023-11-18T03:27:33;4.60;99.90
45619;DHT22;31343;47.520;19.144;2023-11-18T03:29:59;4.60;99.90
45619;DHT22;31343;47.520;19.144;2023-11-18T03:32:24;4.60;99.90
45619;DHT22;31343;47.520;19.144;2023-11-18T03:34:50;4.60;99.90
45619;DHT22;31343;47.520;19.144;2023-11-18T03:37:16;4.60;99.90
45619;DHT22;31343;47.520;19.144;2023-11-18T03:39:42;4.60;99.90
45619;DHT22;31343;47.520;19.144;2023-11-18T03:42:08;4.60;99.90
45619;DHT22;31343;47.520;19.144;2023-11-18T03:44:34;4.60;99.90
45619;DHT22;31343;47.520;19.144;2023-11-18T03:46:59;4.50;99.90
45619;DHT22;31343;47.520;19.144;2023-11-18T03:49:28;4.50;99.90
45619;DHT22;31343;47.520;19.144;2023-11-18T03:51:54;4.50;99.90
45619;DHT22;31343;47.520;19.144;2023-11-18T03:54:20;4.50;99.90
45619;DHT22;31343;47.520;19.144;2023-11-18T03:56:45;4.50;99.90
45619;DHT22;31343;47.520;19.144;2023-11-18T03:59:12;4.50;99.90
45619;DHT22;31343;47.520;19.144;2023-11-18T04:01:38;4.50;99.90
45619;DHT22;31343;47.520;19.144;2023-11-18T04:04:04;4.50;99.90
45619;DHT22;31343;47.520;19.144;2023-11-18T04:06:29;4.60;99.90
45619;DHT22;31343;47.520;19.144;2023-11-18T04:08:55;4.60;99.90
45619;DHT22;31343;47.520;19.144;2023-11-18T04:11:21;4.60;99.90
45619;DHT22;31343;47.520;19.144;2023-11-18T04:13:47;4.60;99.90
45619;DHT22;31343;47.520;19.144;2023-11-18T04:16:16;4.60;99.90
45619;DHT22;31343;47.520;19.144;2023-11-18T04:18:43;4.60;99.90
45619;DHT22;31343;47.520;19.144;2023-11-18T04:21:10;4.60;99.90
45619;DHT22;31343;47.520;19.144;2023-11-18T04:23:41;4.60;99.90
45619;DHT22;31343;47.520;19.144;2023-11-18T04:26:07;4.60;99.90
45619;DHT22;31343;47.520;19.144;2023-11-18T04:28:34;4.60;99.90
45619;DHT22;31343;47.520;19.144;2023-11-18T04:31:00;4.60;99.90
45619;DHT22;31343;47.520;19.144;2023-11-18T04:33:26;4.60;99.90
45619;DHT22;31343;47.520;19.144;2023-11-18T04:35:52;4.50;99.90
45619;DHT22;31343;47.520;19.144;2023-11-18T04:38:18;4.50;99.90
45619;DHT22;31343;47.520;19.144;2023-11-18T04:40:45;4.50;99.90
45619;DHT22;31343;47.520;19.144;2023-11-18T04:43:14;4.60;99.90
45619;DHT22;31343;47.520;19.144;2023-11-18T04:45:43;4.60;99.90
45619;DHT22;31343;47.520;19.144;2023-11-18T04:48:09;4.60;99.90
45619;DHT22;31343;47.520;19.144;2023-11-18T04:50:35;4.60;99.90
45619;DHT22;31343;47.520;19.144;2023-11-18T04:53:01;4.50;99.90
45619;DHT22;31343;47.520;19.144;2023-11-18T04:55:28;4.60;99.90
45619;DHT22;31343;47.520;19.144;2023-11-18T04:57:55;4.60;99.90
45619;DHT22;31343;47.520;19.144;2023-11-18T05:00:21;4.60;99.90
45619;DHT22;31343;47.520;19.144;2023-11-18T05:02:47;4.60;99.90
45619;DHT22;31343;47.520;19.144;2023-11-18T05:05:16;4.60;99.90
45619;DHT22;31343;47.520;19.144;2023-11-18T05:07:42;4.60;99.90
45619;DHT22;31343;47.520;19.144;2023-11-18T05:10:09;4.50;99.90
45619;DHT22;31343;47.520;19.144;2023-11-18T05:12:36;4.60;99.90
45619;DHT22;31343;47.520;19.144;2023-11-18T05:15:03;4.50;99.90
45619;DHT22;31343;47.520;19.144;2023-11-18T05:17:30;4.50;99.90
45619;DHT22;31343;47.520;19.144;2023-11-18T05:19:56;4.50;99.90
45619;DHT22;31343;47.520;19.144;2023-11-18T05:22:22;4.50;99.90
45619;DHT22;31343;47.520;19.144;2023-11-18T05:24:48;4.50;99.90
45619;DHT22;31343;47.520;19.144;2023-11-18T05:27:14;4.60;99.90
45619;DHT22;31343;47.520;19.144;2023-11-18T05:29:40;4.50;99.90
45619;DHT22;31343;47.520;19.144;2023-11-18T05:32:10;4.50;99.90
45619;DHT22;31343;47.520;19.144;2023-11-18T05:34:36;4.60;99.90
45619;DHT22;31343;47.520;19.144;2023-11-18T05:37:02;4.60;99.90
45619;DHT22;31343;47.520;19.144;2023-11-18T05:39:27;4.60;99.90
45619;DHT22;31343;47.520;19.144;2023-11-18T05:41:59;4.60;99.90
45619;DHT22;31343;47.520;19.144;2023-11-18T05:44:25;4.60;99.90
45619;DHT22;31343;47.520;19.144;2023-11-18T05:46:59;4.60;99.90
45619;DHT22;31343;47.520;19.144;2023-11-18T05:49:26;4.60;99.90
45619;DHT22;31343;47.520;19.144;2023-11-18T05:51:51;4.50;99.90
45619;DHT22;31343;47.520;19.144;2023-11-18T05:54:17;4.50;99.90
45619;DHT22;31343;47.520;19.144;2023-11-18T05:56:43;4.50;99.90
45619;DHT22;31343;47.520;19.144;2023-11-18T05:59:09;4.50;99.90
45619;DHT22;31343;47.520;19.144;2023-11-18T06:01:36;4.60;99.90
45619;DHT22;31343;47.520;19.144;2023-11-18T06:04:05;4.60;99.90
45619;DHT22;31343;47.520;19.144;2023-11-18T06:06:34;4.60;99.90
45619;DHT22;31343;47.520;19.144;2023-11-18T06:09:00;4.60;99.90
45619;DHT22;31343;47.520;19.144;2023-11-18T06:11:30;4.60;99.90
45619;DHT22;31343;47.520;19.144;2023-11-18T06:13:57;4.60;99.90
45619;DHT22;31343;47.520;19.144;2023-11-18T06:16:24;4.60;99.90
45619;DHT22;31343;47.520;19.144;2023-11-18T06:18:55;4.70;99.90
45619;DHT22;31343;47.520;19.144;2023-11-18T06:21:26;4.70;99.90
45619;DHT22;31343;47.520;19.144;2023-11-18T06:23:56;5.10;99.90
45619;DHT22;31343;47.520;19.144;2023-11-18T06:26:23;5.60;99.90
45619;DHT22;31343;47.520;19.144;2023-11-18T06:28:53;6.10;99.90
45619;DHT22;31343;47.520;19.144;2023-11-18T06:31:20;6.60;99.90
45619;DHT22;31343;47.520;19.144;2023-11-18T06:33:47;7.00;99.90
45619;DHT22;31343;47.520;19.144;2023-11-18T06:38:45;7.60;99.90
45619;DHT22;31343;47.520;19.144;2023-11-18T06:41:12;7.90;99.90
45619;DHT22;31343;47.520;19.144;2023-11-18T06:43:40;8.10;99.90
45619;DHT22;31343;47.520;19.144;2023-11-18T06:46:27;8.30;99.90
45619;DHT22;31343;47.520;19.144;2023-11-18T06:48:55;8.50;99.90
45619;DHT22;31343;47.520;19.144;2023-11-18T06:51:21;8.50;99.90
45619;DHT22;31343;47.520;19.144;2023-11-18T06:53:56;8.60;99.90
45619;DHT22;31343;47.520;19.144;2023-11-18T06:56:26;8.20;99.90
45619;DHT22;31343;47.520;19.144;2023-11-18T06:58:53;8.20;99.90
45619;DHT22;31343;47.520;19.144;2023-11-18T07:01:19;8.10;99.90
45619;DHT22;31343;47.520;19.144;2023-11-18T07:03:46;7.90;99.90
45619;DHT22;31343;47.520;19.144;2023-11-18T07:06:17;7.90;99.90
45619;DHT22;31343;47.520;19.144;2023-11-18T07:08:48;7.60;99.90
45619;DHT22;31343;47.520;19.144;2023-11-18T07:11:15;7.70;99.90
45619;DHT22;31343;47.520;19.144;2023-11-18T07:13:42;7.60;99.90
45619;DHT22;31343;47.520;19.144;2023-11-18T07:16:08;7.70;99.90
45619;DHT22;31343;47.520;19.144;2023-11-18T07:18:38;7.60;99.90
45619;DHT22;31343;47.520;19.144;2023-11-18T07:21:04;7.60;99.90
45619;DHT22;31343;47.520;19.144;2023-11-18T07:23:33;7.50;99.90
45619;DHT22;31343;47.520;19.144;2023-11-18T07:26:00;7.60;99.90
45619;DHT22;31343;47.520;19.144;2023-11-18T07:28:26;7.60;99.90
45619;DHT22;31343;47.520;19.144;2023-11-18T07:30:53;7.60;99.90
45619;DHT22;31343;47.520;19.144;2023-11-18T07:33:20;7.60;99.90
45619;DHT22;31343;47.520;19.144;2023-11-18T07:35:47;7.70;99.90
45619;DHT22;31343;47.520;19.144;2023-11-18T07:38:16;7.80;99.90
45619;DHT22;31343;47.520;19.144;2023-11-18T07:40:43;7.40;99.90
45619;DHT22;31343;47.520;19.144;2023-11-18T07:43:17;7.50;99.90
45619;DHT22;31343;47.520;19.144;2023-11-18T07:45:43;7.50;99.90
45619;DHT22;31343;47.520;19.144;2023-11-18T07:48:11;7.50;99.90
45619;DHT22;31343;47.520;19.144;2023-11-18T07:50:38;7.60;99.90
45619;DHT22;31343;47.520;19.144;2023-11-18T07:53:06;7.50;99.90
45619;DHT22;31343;47.520;19.144;2023-11-18T07:55:33;7.70;99.90
45619;DHT22;31343;47.520;19.144;2023-11-18T07:58:05;7.70;99.90
45619;DHT22;31343;47.520;19.144;2023-11-18T08:00:39;7.80;99.90
45619;DHT22;31343;47.520;19.144;2023-11-18T08:03:06;7.40;99.90
45619;DHT22;31343;47.520;19.144;2023-11-18T08:05:43;7.60;99.90
45619;DHT22;31343;47.520;19.144;2023-11-18T08:08:09;7.60;99.90
45619;DHT22;31343;47.520;19.144;2023-11-18T08:10:36;7.80;99.90
45619;DHT22;31343;47.520;19.144;2023-11-18T08:13:06;7.90;99.90
45619;DHT22;31343;47.520;19.144;2023-11-18T08:15:43;8.00;99.90
45619;DHT22;31343;47.520;19.144;2023-11-18T08:18:11;8.20;99.90
45619;DHT22;31343;47.520;19.144;2023-11-18T08:20:37;8.30;99.90
45619;DHT22;31343;47.520;19.144;2023-11-18T08:23:05;8.40;99.90
45619;DHT22;31343;47.520;19.144;2023-11-18T08:25:31;8.30;99.90
45619;DHT22;31343;47.520;19.144;2023-11-18T08:28:00;8.10;99.90
45619;DHT22;31343;47.520;19.144;2023-11-18T08:30:28;8.20;99.90
45619;DHT22;31343;47.520;19.144;2023-11-18T08:32:54;8.40;99.90
45619;DHT22;31343;47.520;19.144;2023-11-18T08:35:20;8.30;99.90
45619;DHT22;31343;47.520;19.144;2023-11-18T08:37:48;8.30;99.90
45619;DHT22;31343;47.520;19.144;2023-11-18T08:40:14;8.30;99.90
45619;DHT22;31343;47.520;19.144;2023-11-18T08:42:48;8.30;99.90
45619;DHT22;31343;47.520;19.144;2023-11-18T08:45:19;8.20;99.90
45619;DHT22;31343;47.520;19.144;2023-11-18T08:47:45;8.30;99.90
45619;DHT22;31343;47.520;19.144;2023-11-18T08:50:16;8.40;99.90
45619;DHT22;31343;47.520;19.144;2023-11-18T08:52:43;8.40;99.90
45619;DHT22;31343;47.520;19.144;2023-11-18T08:55:12;8.40;99.90
45619;DHT22;31343;47.520;19.144;2023-11-18T08:57:48;8.50;99.90
45619;DHT22;31343;47.520;19.144;2023-11-18T09:00:41;8.50;99.90
45619;DHT22;31343;47.520;19.144;2023-11-18T09:03:16;8.60;99.90
45619;DHT22;31343;47.520;19.144;2023-11-18T09:05:55;8.80;99.90
45619;DHT22;31343;47.520;19.144;2023-11-18T09:08:30;9.00;99.90
45619;DHT22;31343;47.520;19.144;2023-11-18T09:11:13;9.00;99.90
45619;DHT22;31343;47.520;19.144;2023-11-18T09:13:46;8.90;99.90
45619;DHT22;31343;47.520;19.144;2023-11-18T09:16:19;9.00;99.90
45619;DHT22;31343;47.520;19.144;2023-11-18T09:18:48;9.00;99.90
45619;DHT22;31343;47.520;19.144;2023-11-18T09:21:14;9.00;99.90
45619;DHT22;31343;47.520;19.144;2023-11-18T09:23:41;8.90;99.90
45619;DHT22;31343;47.520;19.144;2023-11-18T09:26:08;8.80;99.90
45619;DHT22;31343;47.520;19.144;2023-11-18T09:28:36;9.00;99.90
45619;DHT22;31343;47.520;19.144;2023-11-18T09:31:02;8.70;99.90
45619;DHT22;31343;47.520;19.144;2023-11-18T09:33:32;8.90;99.90
45619;DHT22;31343;47.520;19.144;2023-11-18T09:36:06;8.70;99.90
45619;DHT22;31343;47.520;19.144;2023-11-18T09:38:39;8.80;99.90
45619;DHT22;31343;47.520;19.144;2023-11-18T09:41:09;8.80;99.90
45619;DHT22;31343;47.520;19.144;2023-11-18T09:43:43;9.00;99.90
45619;DHT22;31343;47.520;19.144;2023-11-18T09:46:16;9.10;99.90
45619;DHT22;31343;47.520;19.144;2023-11-18T09:48:53;9.30;99.90
45619;DHT22;31343;47.520;19.144;2023-11-18T09:51:45;9.40;99.90
45619;DHT22;31343;47.520;19.144;2023-11-18T09:57:20;9.00;99.90
45619;DHT22;31343;47.520;19.144;2023-11-18T10:00:01;9.00;99.90
45619;DHT22;31343;47.520;19.144;2023-11-18T10:02:39;8.90;99.90
45619;DHT22;31343;47.520;19.144;2023-11-18T10:05:09;8.80;99.90
45619;DHT22;31343;47.520;19.144;2023-11-18T10:07:47;8.70;99.90
45619;DHT22;31343;47.520;19.144;2023-11-18T10:10:13;8.70;99.90
45619;DHT22;31343;47.520;19.144;2023-11-18T10:12:47;8.90;99.90
45619;DHT22;31343;47.520;19.144;2023-11-18T10:15:33;8.90;99.90
45619;DHT22;31343;47.520;19.144;2023-11-18T10:18:00;8.90;99.90
45619;DHT22;31343;47.520;19.144;2023-11-18T10:20:43;8.90;99.90
45619;DHT22;31343;47.520;19.144;2023-11-18T10:23:16;8.80;99.90
45619;DHT22;31343;47.520;19.144;2023-11-18T10:28:35;9.00;99.90
45619;DHT22;31343;47.520;19.144;2023-11-18T10:31:05;9.00;99.90
45619;DHT22;31343;47.520;19.144;2023-11-18T10:33:34;8.80;99.90
45619;DHT22;31343;47.520;19.144;2023-11-18T10:36:01;8.80;99.90
45619;DHT22;31343;47.520;19.144;2023-11-18T10:38:31;8.70;99.90
45619;DHT22;31343;47.520;19.144;2023-11-18T10:40:58;8.70;99.90
45619;DHT22;31343;47.520;19.144;2023-11-18T10:43:27;8.80;99.90
45619;DHT22;31343;47.520;19.144;2023-11-18T10:46:09;8.90;99.90
45619;DHT22;31343;47.520;19.144;2023-11-18T10:48:47;9.10;99.70
45619;DHT22;31343;47.520;19.144;2023-11-18T10:51:14;9.30;99.50
45619;DHT22;31343;47.520;19.144;2023-11-18T10:53:44;9.40;98.80
45619;DHT22;31343;47.520;19.144;2023-11-18T10:56:29;9.50;98.10
45619;DHT22;31343;47.520;19.144;2023-11-18T10:59:00;9.50;98.40
45619;DHT22;31343;47.520;19.144;2023-11-18T11:01:32;9.80;98.10
45619;DHT22;31343;47.520;19.144;2023-11-18T11:03:59;10.00;97.80
45619;DHT22;31343;47.520;19.144;2023-11-18T11:06:26;9.80;97.40
45619;DHT22;31343;47.520;19.144;2023-11-18T11:08:56;9.60;97.20
45619;DHT22;31343;47.520;19.144;2023-11-18T11:11:28;9.70;97.00
45619;DHT22;31343;47.520;19.144;2023-11-18T11:14:03;9.80;96.90
45619;DHT22;31343;47.520;19.144;2023-11-18T11:16:39;10.00;96.10
45619;DHT22;31343;47.520;19.144;2023-11-18T11:19:26;10.10;95.80
45619;DHT22;31343;47.520;19.144;2023-11-18T11:22:03;10.40;96.30
45619;DHT22;31343;47.520;19.144;2023-11-18T11:25:03;10.80;94.80
45619;DHT22;31343;47.520;19.144;2023-11-18T11:33:33;12.60;92.50
45619;DHT22;31343;47.520;19.144;2023-11-18T11:36:07;13.30;90.90
45619;DHT22;31343;47.520;19.144;2023-11-18T11:38:37;13.20;90.00
45619;DHT22;31343;47.520;19.144;2023-11-18T11:41:06;13.10;90.10
45619;DHT22;31343;47.520;19.144;2023-11-18T11:43:35;13.40;90.30
45619;DHT22;31343;47.520;19.144;2023-11-18T11:46:01;13.40;89.40
45619;DHT22;31343;47.520;19.144;2023-11-18T11:48:37;12.70;90.50
45619;DHT22;31343;47.520;19.144;2023-11-18T11:51:25;12.20;91.30
45619;DHT22;31343;47.520;19.144;2023-11-18T11:54:12;11.50;92.10
45619;DHT22;31343;47.520;19.144;2023-11-18T11:56:46;11.40;92.60
45619;DHT22;31343;47.520;19.144;2023-11-18T11:59:16;11.50;92.30
45619;DHT22;31343;47.520;19.144;2023-11-18T12:01:42;11.50;92.10
45619;DHT22;31343;47.520;19.144;2023-11-18T12:04:14;11.70;92.60
45619;DHT22;31343;47.520;19.144;2023-11-18T12:06:47;12.10;92.30
45619;DHT22;31343;47.520;19.144;2023-11-18T12:09:14;12.40;91.90
45619;DHT22;31343;47.520;19.144;2023-11-18T12:11:46;12.70;90.50
45619;DHT22;31343;47.520;19.144;2023-11-18T12:14:15;12.70;90.50
45619;DHT22;31343;47.520;19.144;2023-11-18T12:17:19;13.00;90.20
45619;DHT22;31343;47.520;19.144;2023-11-18T12:19:48;12.60;90.00
45619;DHT22;31343;47.520;19.144;2023-11-18T12:22:21;12.00;90.80
45619;DHT22;31343;47.520;19.144;2023-11-18T12:27:44;12.00;91.60
45619;DHT22;31343;47.520;19.144;2023-11-18T12:33:01;13.20;89.50
45619;DHT22;31343;47.520;19.144;2023-11-18T12:47:00;14.30;85.40
45619;DHT22;31343;47.520;19.144;2023-11-18T12:49:47;13.90;85.70
45619;DHT22;31343;47.520;19.144;2023-11-18T12:52:21;13.70;85.90
45619;DHT22;31343;47.520;19.144;2023-11-18T12:54:48;13.50;86.60
45619;DHT22;31343;47.520;19.144;2023-11-18T12:57:18;13.70;85.10
45619;DHT22;31343;47.520;19.144;2023-11-18T12:59:45;13.20;85.80
45619;DHT22;31343;47.520;19.144;2023-11-18T13:02:12;12.70;86.80
45619;DHT22;31343;47.520;19.144;2023-11-18T13:04:48;12.50;88.50
45619;DHT22;31343;47.520;19.144;2023-11-18T13:07:19;12.50;88.80
45619;DHT22;31343;47.520;19.144;2023-11-18T13:09:46;11.90;89.60
45619;DHT22;31343;47.520;19.144;2023-11-18T13:12:13;12.00;90.10
45619;DHT22;31343;47.520;19.144;2023-11-18T13:14:41;12.20;90.50
45619;DHT22;31343;47.520;19.144;2023-11-18T13:17:12;12.60;90.40
45619;DHT22;31343;47.520;19.144;2023-11-18T13:19:39;12.50;88.90
45619;DHT22;31343;47.520;19.144;2023-11-18T13:22:07;12.40;89.20
45619;DHT22;31343;47.520;19.144;2023-11-18T13:24:37;12.00;90.10
45619;DHT22;31343;47.520;19.144;2023-11-18T13:27:08;11.80;90.20
45619;DHT22;31343;47.520;19.144;2023-11-18T13:29:38;11.60;90.50
45619;DHT22;31343;47.520;19.144;2023-11-18T13:32:09;11.40;90.80
45619;DHT22;31343;47.520;19.144;2023-11-18T13:34:36;11.40;90.90
45619;DHT22;31343;47.520;19.144;2023-11-18T13:37:11;11.30;90.80
45619;DHT22;31343;47.520;19.144;2023-11-18T13:39:43;11.60;91.20
45619;DHT22;31343;47.520;19.144;2023-11-18T13:42:38;11.80;90.80
45619;DHT22;31343;47.520;19.144;2023-11-18T13:45:09;11.70;90.90
45619;DHT22;31343;47.520;19.144;2023-11-18T13:47:37;11.50;91.30
45619;DHT22;31343;47.520;19.144;2023-11-18T13:50:07;11.10;91.70
45619;DHT22;31343;47.520;19.144;2023-11-18T13:52:34;11.00;92.10
45619;DHT22;31343;47.520;19.144;2023-11-18T13:55:00;10.70;92.50
45619;DHT22;31343;47.520;19.144;2023-11-18T13:57:26;10.80;92.60
45619;DHT22;31343;47.520;19.144;2023-11-18T13:59:52;10.70;92.60
45619;DHT22;31343;47.520;19.144;2023-11-18T14:02:20;10.30;93.20
45619;DHT22;31343;47.520;19.144;2023-11-18T14:04:47;9.90;93.70
45619;DHT22;31343;47.520;19.144;2023-11-18T14:07:15;9.50;94.70
45619;DHT22;31343;47.520;19.144;2023-11-18T14:09:43;9.20;95.40
45619;DHT22;31343;47.520;19.144;2023-11-18T14:12:15;9.20;95.80
45619;DHT22;31343;47.520;19.144;2023-11-18T14:14:40;9.10;95.80
45619;DHT22;31343;47.520;19.144;2023-11-18T14:17:07;9.00;96.20
45619;DHT22;31343;47.520;19.144;2023-11-18T14:19:35;8.80;96.30
45619;DHT22;31343;47.520;19.144;2023-11-18T14:22:03;8.80;96.40
45619;DHT22;31343;47.520;19.144;2023-11-18T14:24:33;8.70;96.40
45619;DHT22;31343;47.520;19.144;2023-11-18T14:26:59;8.50;96.60
45619;DHT22;31343;47.520;19.144;2023-11-18T14:29:25;8.40;97.00
45619;DHT22;31343;47.520;19.144;2023-11-18T14:31:53;8.30;97.10
45619;DHT22;31343;47.520;19.144;2023-11-18T14:34:19;8.30;97.30
45619;DHT22;31343;47.520;19.144;2023-11-18T14:36:45;8.20;97.60
45619;DHT22;31343;47.520;19.144;2023-11-18T14:39:11;8.10;97.40
45619;DHT22;31343;47.520;19.144;2023-11-18T14:41:39;8.00;97.50
45619;DHT22;31343;47.520;19.144;2023-11-18T14:44:06;7.90;98.30
45619;DHT22;31343;47.520;19.144;2023-11-18T14:46:35;7.90;98.30
45619;DHT22;31343;47.520;19.144;2023-11-18T14:49:04;7.90;98.50
45619;DHT22;31343;47.520;19.144;2023-11-18T14:51:31;7.80;98.60
45619;DHT22;31343;47.520;19.144;2023-11-18T14:53:57;7.70;98.80
45619;DHT22;31343;47.520;19.144;2023-11-18T14:56:23;7.60;99.10
45619;DHT22;31343;47.520;19.144;2023-11-18T14:58:49;7.40;99.20
45619;DHT22;31343;47.520;19.144;2023-11-18T15:01:15;7.40;99.70
45619;DHT22;31343;47.520;19.144;2023-11-18T15:03:42;7.40;99.90
45619;DHT22;31343;47.520;19.144;2023-11-18T15:06:08;7.30;99.90
45619;DHT22;31343;47.520;19.144;2023-11-18T15:08:37;7.30;99.90
45619;DHT22;31343;47.520;19.144;2023-11-18T15:11:02;7.20;99.90
45619;DHT22;31343;47.520;19.144;2023-11-18T15:13:28;7.10;99.90
45619;DHT22;31343;47.520;19.144;2023-11-18T15:15:54;7.00;99.90
45619;DHT22;31343;47.520;19.144;2023-11-18T15:18:20;6.90;99.90
45619;DHT22;31343;47.520;19.144;2023-11-18T15:20:47;6.90;99.90
45619;DHT22;31343;47.520;19.144;2023-11-18T15:23:14;6.90;99.90
45619;DHT22;31343;47.520;19.144;2023-11-18T15:25:42;6.80;99.90
45619;DHT22;31343;47.520;19.144;2023-11-18T15:28:08;6.80;99.90
45619;DHT22;31343;47.520;19.144;2023-11-18T15:30:38;6.70;99.90
45619;DHT22;31343;47.520;19.144;2023-11-18T15:33:05;6.80;99.90
45619;DHT22;31343;47.520;19.144;2023-11-18T15:35:35;6.70;99.90
45619;DHT22;31343;47.520;19.144;2023-11-18T15:38:04;6.70;99.90
45619;DHT22;31343;47.520;19.144;2023-11-18T15:40:35;6.60;99.90
45619;DHT22;31343;47.520;19.144;2023-11-18T15:43:05;6.60;99.90
45619;DHT22;31343;47.520;19.144;2023-11-18T15:45:37;6.60;99.90
45619;DHT22;31343;47.520;19.144;2023-11-18T15:48:03;6.60;99.90
45619;DHT22;31343;47.520;19.144;2023-11-18T15:50:35;6.50;99.90
45619;DHT22;31343;47.520;19.144;2023-11-18T15:53:03;6.50;99.90
45619;DHT22;31343;47.520;19.144;2023-11-18T15:55:32;6.50;99.90
45619;DHT22;31343;47.520;19.144;2023-11-18T15:57:58;6.50;99.90
45619;DHT22;31343;47.520;19.144;2023-11-18T16:00:27;6.50;99.90
45619;DHT22;31343;47.520;19.144;2023-11-18T16:02:54;6.40;99.90
45619;DHT22;31343;47.520;19.144;2023-11-18T16:05:26;6.50;99.90
45619;DHT22;31343;47.520;19.144;2023-11-18T16:07:53;6.30;99.90
45619;DHT22;31343;47.520;19.144;2023-11-18T16:10:23;6.30;99.90